LHGM weather

Gyomai Airport
Gyomai, Békés, Hungary

Public forecast

Using degrees Celsius for public forecast. Weather courtesy of forecast.io.

Closest aviation weather report (METAR) to Gyomai Airport

Report is more than 6 hours old.

Closest report is Békéscsaba Airfield, 20.2 nm (37.4 km) SSE. Retrieved 2019/10/15 11:45 UTC (3 days ago):

LHBC 151145Z 18007KT CAVOK 26/11 Q1015

Closest aviation forecast (TAF) to Gyomai Airport

Forecast is more than 12 hours old.

Closest forecast is Szolnok Air Base, 28.3 nm (52.5 km) WNW. Retrieved 2016/06/17 03:24 UTC (3 years ago):

TAF TAF LHSN 170215Z 1703/1715 17009KT CAVOK BECMG 1707/1710 24015G25KT